Nearby Meteorological Terminal Aviation Routine Weather Reports (METAR)
KAVP - Avoca/Wilkes B., Pennsylvania, USA
Distance from station: NE 13mi, 20km
Updated: Thu, 23-Jan-2020 7:54pm EST
Clear
Clear
 Wind from calm
Wind: Calm
Temperature: 34°F , 1°C
Dew Point: 21°F , -6°C
Humidity: 60%
Barometer: 30.32 inHg , 1026.8 hPa
Clouds: Clear
Visibility: 10 miles , 16 km
2020/01/24 00:54 KAVP 240054Z 00000KT 10SM CLR 01/M06 A3032 RMK AO2 SLP277 T00061061
KMPO - Mt. Pocono, Pennsylvania, USA
Distance from station: ESE 28mi, 45km
Updated: Thu, 23-Jan-2020 7:53pm EST
Clear
Clear
 Wind from calm
Wind: Calm
Temperature: 30°F , -1°C
Dew Point: 19°F , -7°C
Humidity: 64%
Barometer: 30.29 inHg , 1025.7 hPa
Clouds: Clear
Visibility: 10 miles , 16 km
2020/01/24 00:53 KMPO 240053Z AUTO 00000KT 10SM CLR M01/M07 A3029 RMK AO2 SLP283 T10111067
 
KABE - Allentown, Pennsylvania, USA
Distance from station: SSE 46mi, 74km
Updated: Thu, 23-Jan-2020 7:51pm EST
Clear
Clear
 Wind from calm
Wind: Calm
Temperature: 34°F , 1°C
Dew Point: 23°F , -5°C
Humidity: 65%
Barometer: 30.36 inHg , 1028.1 hPa
Clouds: Clear
Visibility: 10 miles , 16 km
2020/01/24 00:51 KABE 240051Z 00000KT 10SM CLR 01/M05 A3036 RMK AO2 SLP285 T00111050
KXLL - Allentown Queen, Pennsylvania, USA
Distance from station: SSE 50mi, 81km
Updated: Thu, 23-Jan-2020 8:35pm EST
Clear
Clear
 Wind from calm
Wind: Calm
Temperature: 34°F , 1°C
Dew Point: 27°F , -3°C
Humidity: 75%
Barometer: 30.37 inHg , 1028.4 hPa
Clouds: Clear
Visibility: 10 miles , 16 km
2020/01/24 01:35 KXLL 240135Z AUTO 00000KT 10SM CLR 01/M03 A3037 RMK AO2
 
KIPT - Williamsport, Pennsylvania, USA
Distance from station: W 52mi, 84km
Updated: Thu, 23-Jan-2020 7:54pm EST
Clear
Clear
 Wind from ESE
Wind: ESE 3 mph , 6 km/h
Temperature: 28°F , -2°C
Dew Point: 19°F , -7°C
Humidity: 69%
Barometer: 30.33 inHg , 1027.1 hPa
Clouds: Clear
Visibility: 10 miles , 16 km
2020/01/24 00:54 KIPT 240054Z 11003KT 10SM CLR M02/M07 A3033 RMK AO2 SLP280 T10221067
KSEG - Selinsgrove, Pennsylvania, USA
Distance from station: WSW 57mi, 92km
Updated: Thu, 23-Jan-2020 7:53pm EST
Clear
Clear
 Wind from N
Wind: N 3 mph , 6 km/h
Temperature: 28°F , -2°C
Dew Point: 23°F , -5°C
Humidity: 80%
Barometer: 30.35 inHg , 1027.8 hPa
Clouds: Clear
Visibility: 8 miles , 13 km
2020/01/24 00:53 KSEG 240053Z AUTO 01003KT 8SM CLR M02/M05 A3035 RMK AO2 SLP286 T10171050
 
KRDG - Reading, Pennsylvania, USA
Distance from station: S 59mi, 95km
Updated: Thu, 23-Jan-2020 7:54pm EST
Clear
Clear
 Wind from calm
Wind: Calm
Temperature: 36°F , 2°C
Dew Point: 21°F , -6°C
Humidity: 56%
Barometer: 30.34 inHg , 1027.4 hPa
Clouds: Clear
Visibility: 10 miles , 16 km
2020/01/24 00:54 KRDG 240054Z 00000KT 10SM CLR 02/M06 A3034 RMK AO2 SLP285 T00171061
KUKT - Quakertown Arp, Pennsylvania, USA
Distance from station: SSE 61mi, 98km
Updated: Thu, 23-Jan-2020 8:40pm EST
Clear
Clear
 Wind from calm
Wind: Calm
Temperature: 30°F , -1°C
Dew Point: 23°F , -5°C
Humidity: 75%
Barometer: 30.36 inHg , 1028.1 hPa
Clouds: Clear
Visibility: 10 miles , 16 km
2020/01/24 01:40 KUKT 240140Z AUTO 00000KT 10SM CLR M01/M05 A3036 RMK A01
 
K12N - Andover, New Jersey, USA
Distance from station: ESE 63mi, 101km
Updated: Thu, 23-Jan-2020 7:54pm EST

 Wind from calm
Wind: Calm
Temperature: 30°F , -1°C
Dew Point: 25°F , -4°C
Humidity: 80%
Barometer: 30.34 inHg , 1027.4 hPa
2020/01/24 00:54 K12N 240054Z AUTO 00000KT M01/M04 A3034 RMK AO1 SLP290 T10111039
KMUI - Muir Aaf/Indiant, Pennsylvania, USA
Distance from station: SSW 65mi, 105km
Updated: Thu, 23-Jan-2020 7:56pm EST
Clear
Clear
 Wind from calm
Wind: Calm
Temperature: 32°F , 0°C
Dew Point: 23°F , -5°C
Humidity: 69%
Barometer: 30.35 inHg , 1027.8 hPa
Clouds: Clear
Visibility: 10 miles , 16 km
2020/01/24 00:56 KMUI 240056Z AUTO 00000KT 10SM CLR 00/M05 A3035 RMK AO2 SLP288 T10021050
 
KFWN - Sussex, New Jersey, USA
Distance from station: E 66mi, 107km
Updated: Thu, 23-Jan-2020 7:53pm EST
Clear
Clear
 Wind from calm
Wind: Calm
Temperature: 30°F , -1°C
Dew Point: 21°F , -6°C
Humidity: 69%
Barometer: 30.34 inHg , 1027.4 hPa
Clouds: Clear
Visibility: 10 miles , 16 km
2020/01/24 00:53 KFWN 240053Z AUTO 00000KT 10SM UP CLR M01/M06 A3034 RMK AO2 UPB52 SLP281 P0000 T10061056
KMSV - Monticello, New York, USA
Distance from station: ENE 67mi, 108km
Updated: Thu, 23-Jan-2020 7:56pm EST
Clear
Clear
 Wind from calm
Wind: Calm
Temperature: 28°F , -2°C
Dew Point: 16°F , -9°C
Humidity: 59%
Barometer: 30.31 inHg , 1026.4 hPa
Clouds: Clear
Visibility: 10 miles , 16 km
2020/01/24 00:56 KMSV 240056Z AUTO 00000KT 10SM CLR M02/M09 A3031 RMK AO2 SLP287 T10171089 FZRANO
 
KBGM - Binghamton, New York, USA
Distance from station: N 69mi, 111km
Updated: Thu, 23-Jan-2020 7:53pm EST
Clear
Clear
 Wind from calm
Wind: Calm
Temperature: 34°F , 1°C
Dew Point: 12°F , -11°C
Humidity: 41%
Barometer: 30.27 inHg , 1025.1 hPa
Clouds: Clear
Visibility: 10 miles , 16 km
2020/01/24 00:53 KBGM 240053Z 00000KT 10SM CLR 01/M11 A3027 RMK AO2 SLP271 T00111111
KPTW - Pottstown, Pennsylvania, USA
Distance from station: SSE 71mi, 114km
Updated: Thu, 23-Jan-2020 7:54pm EST
Clear
Clear
 Wind from calm
Wind: Calm
Temperature: 30°F , -1°C
Dew Point: 21°F , -6°C
Humidity: 69%
Barometer: 30.37 inHg , 1028.4 hPa
Clouds: Clear
Visibility: 8 miles , 13 km
2020/01/24 00:54 KPTW 240054Z AUTO 00000KT 8SM CLR M01/M06 A3037 RMK AO2 SLP287 T10111061
 
KDYL - Doylestown, Pennsylvania, USA
Distance from station: SE 74mi, 119km
Updated: Thu, 23-Jan-2020 7:54pm EST
Clear
Clear
 Wind from calm
Wind: Calm
Temperature: 36°F , 2°C
Dew Point: 19°F , -7°C
Humidity: 52%
Barometer: 30.35 inHg , 1027.8 hPa
Clouds: Clear
Visibility: 10 miles , 16 km
2020/01/24 00:54 KDYL 240054Z AUTO 00000KT 10SM CLR 02/M07 A3035 RMK AO2 SLP286 T00221072
KSMQ - Somerville, New Jersey, USA
Distance from station: ESE 77mi, 124km
Updated: Thu, 23-Jan-2020 7:53pm EST
Clear
Clear
 Wind from calm
Wind: Calm
Temperature: 32°F , 0°C
Dew Point: 23°F , -5°C
Humidity: 69%
Barometer: 30.35 inHg , 1027.8 hPa
Clouds: Clear
Visibility: 10 miles , 16 km
2020/01/24 00:53 KSMQ 240053Z AUTO 00000KT 10SM CLR 00/M05 A3035 RMK AO2 SLP280 T00001050
 
KLNS - Lancaster, Pennsylvania, USA
Distance from station: SSW 79mi, 127km
Updated: Thu, 23-Jan-2020 7:53pm EST
Clear
Clear
 Wind from calm
Wind: Calm
Temperature: 34°F , 1°C
Dew Point: 25°F , -4°C
Humidity: 70%
Barometer: 30.35 inHg , 1027.8 hPa
Clouds: Clear
Visibility: 8 miles , 13 km
2020/01/24 00:53 KLNS 240053Z 00000KT 8SM CLR 01/M04 A3035 RMK AO2 SLP282 T00111044
KELM - Elmira, New York, USA
Distance from station: NW 82mi, 132km
Updated: Thu, 23-Jan-2020 7:53pm EST
Clear
Clear
 Wind from S
Wind: S 5 mph , 7 km/h
Temperature: 28°F , -2°C
Wind Chill: 22°F , -6°C
Dew Point: 23°F , -5°C
Humidity: 80%
Barometer: 30.29 inHg , 1025.7 hPa
Clouds: Clear
Visibility: 10 miles , 16 km
2020/01/24 00:53 KELM 240053Z 18004KT 10SM CLR M02/M05 A3029 RMK AO2 SLP273 T10171050
 
KLOM - Philly Wings F, Pennsylvania, USA
Distance from station: SSE 82mi, 132km
Updated: Thu, 23-Jan-2020 8:35pm EST
Clear
Clear
 Wind from calm
Wind: Calm
Temperature: 32°F , 0°C
Dew Point: 23°F , -5°C
Humidity: 69%
Barometer: 30.36 inHg , 1028.1 hPa
Clouds: Clear
Visibility: 10 miles , 16 km
2020/01/24 01:35 KLOM 240135Z AUTO 00000KT 10SM CLR 00/M05 A3036 RMK AO2 T10051054
KMMU - Morristown Muni, New Jersey, USA
Distance from station: ESE 83mi, 134km
Updated: Thu, 23-Jan-2020 8:45pm EST
Overcast
Overcast
 Wind from calm
Wind: Calm
Temperature: 30°F , -1°C
Dew Point: 25°F , -4°C
Humidity: 80%
Barometer: 30.37 inHg , 1028.4 hPa
Clouds: Overcast
Visibility: 10 miles , 16 km
Cloud details: Overcast 19000 ft
2020/01/24 01:45 KMMU 240145Z 00000KT 10SM OVC190 M01/M04 A3037

Metar display script from Saratoga-Weather.org


Cairn Terrier Rescue
teddybearweather.com 2009-2018